Time;durP1;ratioP1;P1;durP2;ratioP2;P2;SDS_P1;SDS_P2;PMS_P1;PMS_P2;Temp;Humidity;BMP_temperature;BMP_pressure;BME280_temperature;BME280_humidity;BME280_pressure;Samples;Min_cycle;Max_cycle;Signal;HPM_P1;HPM_P2
2023/11/15 00:02:07;;;;;;;8.20;1.98;;;;;;;9.05;78.97;99589.34;5006521;28;20456;-48
2023/11/15 00:04:34;;;;;;;5.32;1.15;;;;;;;9.04;79.31;99604.84;5008635;28;20088;-43
2023/11/15 00:07:00;;;;;;;5.75;2.05;;;;;;;8.99;78.78;99595.38;5013728;28;20046;-47
2023/11/15 00:09:31;;;;;;;5.00;0.90;;;;;;;8.97;78.70;99599.72;5002939;28;20115;-48
2023/11/15 00:11:57;;;;;;;6.47;1.50;;;;;;;8.97;79.08;99601.41;5007051;28;20104;-46
2023/11/15 00:14:25;;;;;;;12.27;2.03;;;;;;;8.95;78.93;99601.41;5005645;28;20599;-46
2023/11/15 00:16:52;;;;;;;4.82;0.77;;;;;;;8.94;78.87;99599.72;5005489;28;20053;-45
2023/11/15 00:19:21;;;;;;;3.63;1.30;;;;;;;8.92;79.16;99601.44;5001316;28;20045;-45
2023/11/15 00:21:49;;;;;;;5.40;1.35;;;;;;;8.90;79.40;99598.00;5009529;28;20045;-45
2023/11/15 00:24:16;;;;;;;3.03;0.90;;;;;;;8.90;78.82;99598.00;5019765;28;20513;-46
2023/11/15 00:26:42;;;;;;;4.60;0.90;;;;;;;8.88;78.82;99599.72;5002662;28;20053;-47
2023/11/15 00:29:09;;;;;;;4.30;0.95;;;;;;;8.85;78.92;99604.91;5007436;28;20096;-45
2023/11/15 00:31:36;;;;;;;6.90;1.33;;;;;;;8.82;79.44;99598.00;5027395;28;20049;-50
2023/11/15 00:34:05;;;;;;;6.25;0.80;;;;;;;8.80;79.21;99601.47;5016046;28;21367;-42
2023/11/15 00:36:38;;;;;;;3.13;0.65;;;;;;;8.76;78.94;99610.09;5014118;28;21555;-52
2023/11/15 00:39:08;;;;;;;5.60;1.27;;;;;;;8.69;79.13;99610.13;5030660;28;20149;-53
2023/11/15 00:41:35;;;;;;;5.30;1.23;;;;;;;8.64;78.77;99606.66;5005600;28;20085;-47
2023/11/15 00:44:06;;;;;;;5.15;1.17;;;;;;;8.61;78.81;99611.84;5003963;28;20107;-52
2023/11/15 00:46:34;;;;;;;3.75;1.08;;;;;;;8.58;79.59;99617.03;5015084;28;20167;-45
2023/11/15 00:49:03;;;;;;;7.35;1.17;;;;;;;8.53;79.24;99611.84;5012806;28;20053;-44
2023/11/15 00:51:29;;;;;;;4.25;1.17;;;;;;;8.51;79.08;99617.84;5000504;28;20050;-46
2023/11/15 00:53:56;;;;;;;4.60;1.15;;;;;;;8.45;79.02;99616.97;5003195;28;20061;-48
2023/11/15 00:56:23;;;;;;;5.78;0.85;;;;;;;8.44;78.87;99623.00;4998191;28;20532;-44
2023/11/15 00:58:50;;;;;;;3.38;1.13;;;;;;;8.43;79.03;99623.88;5002143;28;20058;-51
2023/11/15 01:01:17;;;;;;;7.18;1.23;;;;;;;8.43;79.45;99623.00;5000350;28;20050;-43
2023/11/15 01:03:46;;;;;;;4.35;1.73;;;;;;;8.41;79.59;99620.44;5001447;28;20414;-48
2023/11/15 01:06:14;;;;;;;4.28;1.05;;;;;;;8.38;79.57;99623.03;5003384;28;20076;-42
2023/11/15 01:08:41;;;;;;;9.07;0.80;;;;;;;8.36;78.82;99632.50;5022234;28;20053;-49
2023/11/15 01:11:08;;;;;;;4.25;0.80;;;;;;;8.33;79.39;99628.19;5004992;28;20050;-48
2023/11/15 01:13:34;;;;;;;3.05;0.98;;;;;;;8.33;79.51;99637.66;5003177;28;20519;-51
2023/11/15 01:16:01;;;;;;;3.42;1.63;;;;;;;8.33;79.64;99640.22;5000893;28;20054;-49
2023/11/15 01:18:29;;;;;;;3.15;1.00;;;;;;;8.29;79.27;99635.94;4996495;28;20137;-49
2023/11/15 01:20:56;;;;;;;3.45;1.48;;;;;;;8.31;79.62;99634.22;5003249;28;20058;-45
2023/11/15 01:23:22;;;;;;;7.40;1.33;;;;;;;8.30;79.22;99643.66;5007251;28;20052;-47
2023/11/15 01:25:49;;;;;;;5.53;1.13;;;;;;;8.29;79.83;99647.13;5003049;28;20045;-48
2023/11/15 01:28:16;;;;;;;5.70;0.85;;;;;;;8.29;78.83;99651.41;5008693;28;20143;-48
2023/11/15 01:30:42;;;;;;;2.03;0.93;;;;;;;8.29;79.06;99654.00;5006111;28;20052;-46
2023/11/15 01:33:09;;;;;;;9.43;0.77;;;;;;;8.26;79.12;99656.56;5021762;28;20053;-42
2023/11/15 01:35:37;;;;;;;3.40;0.50;;;;;;;8.25;79.63;99654.84;5005609;28;20120;-50
2023/11/15 01:38:03;;;;;;;8.20;1.20;;;;;;;8.21;79.02;99654.84;5020315;28;20077;-43
2023/11/15 01:40:34;;;;;;;3.58;1.65;;;;;;;8.20;79.27;99658.28;5018038;28;20403;-44
2023/11/15 01:43:01;;;;;;;4.88;1.25;;;;;;;8.19;79.14;99660.88;5003802;28;20458;-51
2023/11/15 01:45:28;;;;;;;2.13;0.70;;;;;;;8.17;78.79;99662.59;5006654;28;20081;-49
2023/11/15 01:47:55;;;;;;;3.42;1.00;;;;;;;8.14;79.08;99660.00;5009035;28;20050;-47
2023/11/15 01:50:23;;;;;;;4.32;0.75;;;;;;;8.11;79.12;99655.72;5009065;28;20049;-46
2023/11/15 01:52:50;;;;;;;2.83;1.08;;;;;;;8.10;79.75;99656.53;5008894;28;20054;-42
2023/11/15 01:55:19;;;;;;;5.75;1.13;;;;;;;8.09;79.03;99665.16;5007385;28;20050;-48
2023/11/15 01:57:46;;;;;;;7.85;1.13;;;;;;;8.08;79.23;99663.44;5010958;28;20096;-44
2023/11/15 02:00:14;;;;;;;3.25;1.30;;;;;;;8.08;79.35;99660.84;5010067;28;20065;-47
2023/11/15 02:02:42;;;;;;;1.75;0.63;;;;;;;8.06;79.87;99665.13;5008844;28;20129;-48
2023/11/15 02:05:10;;;;;;;2.47;0.70;;;;;;;8.06;78.96;99667.72;5021317;28;20053;-53
2023/11/15 02:07:37;;;;;;;2.78;1.17;;;;;;;8.04;79.41;99672.03;5013422;28;20064;-44
2023/11/15 02:10:06;;;;;;;4.78;1.02;;;;;;;8.02;79.63;99661.72;5004854;28;20104;-41
2023/11/15 02:12:33;;;;;;;5.00;0.60;;;;;;;8.03;79.12;99670.28;5012193;28;20498;-49
2023/11/15 02:15:00;;;;;;;9.90;0.80;;;;;;;8.02;79.30;99674.59;5035592;28;20049;-46
2023/11/15 02:17:27;;;;;;;5.93;0.90;;;;;;;8.02;79.10;99673.75;5003668;28;20129;-45
2023/11/15 02:19:54;;;;;;;4.43;0.80;;;;;;;8.03;80.08;99675.44;5004444;28;20073;-48
2023/11/15 02:22:21;;;;;;;6.10;0.93;;;;;;;8.05;79.81;99678.91;5009187;28;20049;-44
2023/11/15 02:24:47;;;;;;;5.75;1.58;;;;;;;8.04;79.49;99678.03;5003332;28;20380;-48
2023/11/15 02:27:14;;;;;;;6.40;1.75;;;;;;;8.05;79.00;99673.75;5005401;28;20412;-47
2023/11/15 02:29:41;;;;;;;8.32;2.30;;;;;;;8.05;79.35;99674.63;5027874;28;20398;-48
2023/11/15 02:32:09;;;;;;;2.70;0.88;;;;;;;8.05;80.03;99674.63;5003286;28;20089;-51
2023/11/15 02:34:36;;;;;;;3.42;0.90;;;;;;;8.04;79.50;99677.19;4996390;28;20153;-43
2023/11/15 02:37:03;;;;;;;5.18;0.93;;;;;;;8.04;80.14;99677.19;5007247;28;20049;-46
2023/11/15 02:39:29;;;;;;;2.85;1.00;;;;;;;8.05;79.19;99673.75;5007261;28;20136;-46
2023/11/15 02:41:56;;;;;;;5.43;1.50;;;;;;;8.05;79.80;99676.31;5010459;28;20054;-47
2023/11/15 02:44:23;;;;;;;6.63;0.63;;;;;;;8.07;79.11;99682.38;5021347;28;20136;-46
2023/11/15 02:46:50;;;;;;;9.65;0.70;;;;;;;8.05;79.26;99684.06;5016494;28;20144;-46
2023/11/15 02:49:17;;;;;;;3.45;1.77;;;;;;;8.04;79.41;99682.34;5004116;28;20434;-43
2023/11/15 02:51:46;;;;;;;5.68;0.80;;;;;;;8.07;79.93;99690.09;5011210;28;20172;-49
2023/11/15 02:54:14;;;;;;;4.82;1.63;;;;;;;8.07;79.50;99692.69;5005212;28;20081;-46
2023/11/15 02:56:41;;;;;;;4.00;0.80;;;;;;;8.06;79.81;99696.09;5003027;28;20053;-48
2023/11/15 02:59:07;;;;;;;10.93;1.10;;;;;;;8.05;80.46;99694.38;5002898;28;20050;-46
2023/11/15 03:01:34;;;;;;;4.18;0.90;;;;;;;8.04;79.97;99692.66;5004670;28;20123;-49
2023/11/15 03:04:01;;;;;;;4.57;0.63;;;;;;;8.06;79.48;99696.97;4992791;28;20133;-47
2023/11/15 03:06:27;;;;;;;2.78;1.38;;;;;;;8.06;79.51;99698.66;5003507;28;20625;-49
2023/11/15 03:08:54;;;;;;;3.85;0.50;;;;;;;8.07;80.19;99703.84;5024489;28;20099;-43
2023/11/15 03:11:21;;;;;;;8.10;0.70;;;;;;;8.08;80.25;99705.56;5008348;28;20467;-46
2023/11/15 03:13:48;;;;;;;4.28;1.25;;;;;;;8.09;79.65;99709.00;5004247;28;20137;-47
2023/11/15 03:16:15;;;;;;;4.55;1.23;;;;;;;8.07;80.02;99703.84;5004737;28;20626;-45
2023/11/15 03:18:42;;;;;;;3.08;0.70;;;;;;;8.07;79.31;99708.16;5004703;28;20045;-44
2023/11/15 03:21:09;;;;;;;2.60;0.60;;;;;;;8.05;80.07;99707.28;5022440;28;20088;-41
2023/11/15 03:23:38;;;;;;;5.93;2.42;;;;;;;8.05;79.87;99715.00;4998597;28;20405;-44
2023/11/15 03:26:05;;;;;;;8.82;1.45;;;;;;;8.03;79.34;99716.72;4997741;28;20054;-49
2023/11/15 03:28:31;;;;;;;3.70;0.73;;;;;;;8.00;79.45;99717.56;5004156;28;20073;-49
2023/11/15 03:30:58;;;;;;;2.85;0.73;;;;;;;7.98;79.51;99720.16;5012764;28;20572;-56
2023/11/15 03:33:24;;;;;;;6.00;0.90;;;;;;;7.98;79.61;99720.16;5021034;28;20057;-53
2023/11/15 03:35:51;;;;;;;4.40;0.73;;;;;;;7.94;79.33;99718.41;5026551;28;20054;-44
2023/11/15 03:38:18;;;;;;;3.95;1.08;;;;;;;7.95;80.02;99716.72;5022305;28;20057;-45
2023/11/15 03:40:45;;;;;;;5.20;1.25;;;;;;;7.92;79.32;99720.16;5026762;28;20056;-50
2023/11/15 03:43:11;;;;;;;6.70;0.82;;;;;;;7.92;79.90;99716.69;5027791;28;20045;-49
2023/11/15 03:45:38;;;;;;;5.25;1.15;;;;;;;7.89;79.22;99714.97;5028745;28;20045;-44
2023/11/15 03:48:05;;;;;;;9.35;1.08;;;;;;;7.90;80.12;99726.16;5031167;28;20072;-45
2023/11/15 03:50:32;;;;;;;4.88;0.90;;;;;;;7.86;79.98;99725.28;5029586;28;20041;-44
2023/11/15 03:53:00;;;;;;;1.30;0.70;;;;;;;7.85;79.24;99728.72;5033646;28;20053;-44
2023/11/15 03:55:26;;;;;;;1.95;0.50;;;;;;;7.83;80.22;99730.41;5023678;28;20069;-47
2023/11/15 03:57:53;;;;;;;6.18;1.20;;;;;;;7.81;80.23;99732.97;5029955;28;20102;-47
2023/11/15 04:00:20;;;;;;;6.82;0.73;;;;;;;7.79;80.42;99733.84;5023983;28;20045;-47
2023/11/15 04:02:46;;;;;;;4.57;1.17;;;;;;;7.77;79.90;99735.56;5024661;28;20049;-50
2023/11/15 04:05:16;;;;;;;1.85;0.90;;;;;;;7.78;80.21;99738.16;5025954;28;20144;-46
2023/11/15 04:07:44;;;;;;;6.40;1.33;;;;;;;7.77;80.10;99745.88;5028378;28;20046;-45
2023/11/15 04:10:11;;;;;;;3.65;0.93;;;;;;;7.75;80.30;99756.19;5031576;28;20052;-45
2023/11/15 04:12:38;;;;;;;4.45;0.55;;;;;;;7.74;79.32;99757.06;5023913;28;20077;-43
2023/11/15 04:15:08;;;;;;;4.43;1.10;;;;;;;7.72;79.99;99754.47;5025572;28;20148;-43
2023/11/15 04:17:36;;;;;;;3.28;0.77;;;;;;;7.72;79.60;99756.16;5026954;28;20053;-48
2023/11/15 04:20:06;;;;;;;2.78;0.85;;;;;;;7.70;79.75;99751.00;5022550;28;20065;-47
2023/11/15 04:22:34;;;;;;;5.95;0.82;;;;;;;7.69;80.40;99754.44;5052785;28;20060;-44
2023/11/15 04:25:00;;;;;;;5.97;1.35;;;;;;;7.69;79.35;99759.59;5027449;28;20053;-49
2023/11/15 04:27:28;;;;;;;2.15;0.95;;;;;;;7.65;79.40;99747.56;5027697;28;20041;-50
2023/11/15 04:29:57;;;;;;;4.25;0.73;;;;;;;7.66;79.71;99749.28;5028473;28;20045;-46
2023/11/15 04:32:24;;;;;;;6.53;0.77;;;;;;;7.65;79.46;99752.72;5025526;28;20049;-48
2023/11/15 04:34:52;;;;;;;3.72;0.85;;;;;;;7.65;79.60;99760.44;5025084;28;20129;-44
2023/11/15 04:37:19;;;;;;;4.45;0.70;;;;;;;7.64;79.75;99765.59;5022471;28;20042;-42
2023/11/15 04:39:47;;;;;;;4.05;1.17;;;;;;;7.61;79.30;99766.44;5023573;28;20050;-43
2023/11/15 04:42:13;;;;;;;3.13;0.65;;;;;;;7.60;79.42;99764.69;5019659;28;20042;-42
2023/11/15 04:44:40;;;;;;;2.75;1.02;;;;;;;7.57;79.50;99770.69;5026147;28;20057;-44
2023/11/15 04:47:07;;;;;;;6.22;0.88;;;;;;;7.56;79.80;99773.25;5026668;28;20073;-45
2023/11/15 04:49:33;;;;;;;5.40;0.65;;;;;;;7.58;80.39;99787.03;5028827;28;20041;-54
2023/11/15 04:52:00;;;;;;;2.25;0.80;;;;;;;7.56;80.30;99781.00;5017402;28;20057;-46
2023/11/15 04:54:27;;;;;;;8.75;0.90;;;;;;;7.55;79.95;99781.84;5019829;28;20149;-46
2023/11/15 04:56:54;;;;;;;3.45;0.73;;;;;;;7.54;79.34;99781.00;5027759;28;20053;-52
2023/11/15 04:59:20;;;;;;;2.47;0.57;;;;;;;7.54;80.57;99783.56;5022962;28;20054;-50
2023/11/15 05:01:47;;;;;;;3.33;0.70;;;;;;;7.53;79.54;99783.59;5026292;28;20059;-46
2023/11/15 05:04:14;;;;;;;3.30;0.88;;;;;;;7.51;79.36;99782.69;5024212;28;20053;-49
2023/11/15 05:06:43;;;;;;;4.00;0.60;;;;;;;7.52;80.15;99776.69;5023232;28;20057;-47
2023/11/15 05:09:09;;;;;;;4.80;1.73;;;;;;;7.52;80.57;99784.41;5025987;28;20080;-44
2023/11/15 05:11:36;;;;;;;7.07;0.95;;;;;;;7.53;79.48;99788.75;5026527;28;20045;-47
2023/11/15 05:14:03;;;;;;;2.85;1.08;;;;;;;7.53;79.63;99788.75;5023265;28;20069;-43
2023/11/15 05:16:30;;;;;;;1.88;0.50;;;;;;;7.53;79.54;99788.75;5027058;28;20053;-48
2023/11/15 05:18:56;;;;;;;5.03;0.73;;;;;;;7.55;80.85;99792.16;5021339;28;20095;-52
2023/11/15 05:21:25;;;;;;;4.05;1.05;;;;;;;7.56;79.75;99793.88;5030065;28;20746;-45
2023/11/15 05:23:52;;;;;;;2.47;0.40;;;;;;;7.57;79.80;99800.78;5031324;28;20109;-45
2023/11/15 05:26:18;;;;;;;1.95;1.70;;;;;;;7.56;80.70;99794.75;5033961;28;20407;-46
2023/11/15 05:28:45;;;;;;;4.50;1.15;;;;;;;7.57;79.92;99805.94;5026558;28;20588;-47
2023/11/15 05:31:12;;;;;;;8.15;1.33;;;;;;;7.56;80.51;99799.03;5029162;28;20522;-45
2023/11/15 05:33:39;;;;;;;1.48;0.50;;;;;;;7.53;80.24;99799.06;5027426;28;20136;-45
2023/11/15 05:36:07;;;;;;;7.60;0.75;;;;;;;7.57;79.93;99805.94;5029596;28;20076;-43
2023/11/15 05:38:34;;;;;;;3.25;0.50;;;;;;;7.59;81.00;99809.38;5029484;28;20052;-45
2023/11/15 05:41:02;;;;;;;2.00;0.75;;;;;;;7.60;81.03;99805.94;5036742;28;20136;-47
2023/11/15 05:43:29;;;;;;;3.50;1.73;;;;;;;7.59;79.94;99805.09;5026199;28;20474;-45
2023/11/15 05:45:56;;;;;;;3.72;1.17;;;;;;;7.59;81.19;99814.53;5025679;28;20060;-50
2023/11/15 05:48:23;;;;;;;1.92;0.55;;;;;;;7.57;81.24;99818.81;5021114;28;20061;-47
2023/11/15 05:50:50;;;;;;;3.90;2.03;;;;;;;7.57;80.92;99822.25;5019326;28;20377;-46
2023/11/15 05:53:19;;;;;;;2.05;0.45;;;;;;;7.59;80.42;99822.25;5025502;28;20123;-47
2023/11/15 05:55:46;;;;;;;0.77;0.50;;;;;;;7.56;80.53;99820.53;5029037;28;20045;-45
2023/11/15 05:58:13;;;;;;;1.98;1.27;;;;;;;7.59;81.23;99819.69;5026072;28;20415;-46
2023/11/15 06:00:39;;;;;;;1.17;0.55;;;;;;;7.63;80.85;99821.41;5028915;28;20045;-42
2023/11/15 06:03:06;;;;;;;2.90;0.65;;;;;;;7.59;80.90;99817.97;5024646;28;20053;-42
2023/11/15 06:05:33;;;;;;;4.82;2.00;;;;;;;7.59;80.51;99815.41;5020194;28;20415;-45
2023/11/15 06:08:00;;;;;;;5.60;2.00;;;;;;;7.61;80.42;99815.41;5019460;28;20068;-41
2023/11/15 06:10:30;;;;;;;16.30;7.75;;;;;;;7.60;79.92;99816.25;5018817;28;20046;-48
2023/11/15 06:12:57;;;;;;;22.20;8.88;;;;;;;7.52;80.68;99818.78;5028047;28;20053;-48
2023/11/15 06:15:24;;;;;;;9.38;4.72;;;;;;;7.51;81.25;99827.38;5026840;28;20273;-53
2023/11/15 06:17:52;;;;;;;6.70;2.92;;;;;;;7.58;80.37;99817.97;5021969;28;20144;-48
2023/11/15 06:20:19;;;;;;;6.35;2.00;;;;;;;7.56;80.55;99824.81;5022851;28;20049;-46
2023/11/15 06:22:46;;;;;;;11.95;6.78;;;;;;;7.57;80.82;99823.97;5023884;28;20107;-47
2023/11/15 06:25:18;;;;;;;11.73;5.40;;;;;;;7.51;81.16;99831.66;5025673;28;20061;-46
2023/11/15 06:27:45;;;;;;;8.80;2.33;;;;;;;7.53;81.83;99841.13;5020552;28;20061;-47
2023/11/15 06:30:16;;;;;;;3.53;1.58;;;;;;;7.57;80.90;99821.41;5016500;28;20079;-46
2023/11/15 06:32:44;;;;;;;7.40;2.15;;;;;;;7.58;81.34;99820.53;5020666;28;20127;-45
2023/11/15 06:35:18;;;;;;;6.70;1.65;;;;;;;7.57;80.98;99817.09;5029821;28;20041;-47
2023/11/15 06:37:46;;;;;;;8.50;4.10;;;;;;;7.58;81.14;99820.53;5026620;28;20447;-50
2023/11/15 06:40:15;;;;;;;4.00;1.95;;;;;;;7.59;81.24;99822.25;5014164;28;20431;-52
2023/11/15 06:42:42;;;;;;;2.80;2.13;;;;;;;7.57;80.39;99832.56;5009104;28;20412;-48
2023/11/15 06:45:10;;;;;;;9.10;2.83;;;;;;;7.56;80.74;99835.13;5011472;28;20045;-48
2023/11/15 06:47:36;;;;;;;9.15;3.65;;;;;;;7.55;80.44;99838.56;5008149;28;20111;-49
2023/11/15 06:50:04;;;;;;;9.05;3.25;;;;;;;7.57;80.16;99842.03;5009288;28;20499;-41
2023/11/15 06:52:32;;;;;;;16.92;6.55;;;;;;;7.57;80.92;99842.88;4999668;28;20141;-49
2023/11/15 06:54:59;;;;;;;6.60;2.22;;;;;;;7.52;80.98;99838.53;5002896;28;20045;-43
2023/11/15 06:57:26;;;;;;;7.43;2.90;;;;;;;7.54;80.28;99839.41;5008544;28;20188;-47
2023/11/15 06:59:53;;;;;;;7.22;3.40;;;;;;;7.53;80.05;99846.28;5011054;28;20061;-46
2023/11/15 07:02:20;;;;;;;5.43;1.85;;;;;;;7.49;81.28;99854.00;5028894;28;20060;-46
2023/11/15 07:04:47;;;;;;;7.85;3.15;;;;;;;7.52;80.98;99860.03;5022236;28;20163;-46
2023/11/15 07:07:14;;;;;;;9.30;2.53;;;;;;;7.52;81.22;99854.00;5012812;28;20069;-52
2023/11/15 07:09:40;;;;;;;9.07;3.75;;;;;;;7.54;80.96;99857.47;5006053;28;20946;-45
2023/11/15 07:12:08;;;;;;;4.88;2.05;;;;;;;7.54;79.83;99857.47;5004569;28;20045;-47
2023/11/15 07:14:36;;;;;;;6.25;1.55;;;;;;;7.56;80.03;99856.63;5006044;28;20046;-43
2023/11/15 07:17:03;;;;;;;8.25;3.33;;;;;;;7.54;79.84;99862.63;5004868;28;20038;-46
2023/11/15 07:19:32;;;;;;;6.20;1.60;;;;;;;7.52;80.39;99866.88;5001660;28;20058;-49
2023/11/15 07:21:59;;;;;;;7.80;2.65;;;;;;;7.53;80.57;99871.22;5001596;28;20129;-47
2023/11/15 07:24:27;;;;;;;4.72;1.58;;;;;;;7.51;79.88;99872.91;4997745;28;20054;-43
2023/11/15 07:26:54;;;;;;;7.45;3.22;;;;;;;7.50;80.32;99882.34;5002629;28;20104;-48
2023/11/15 07:29:21;;;;;;;3.22;1.40;;;;;;;7.50;80.24;99872.03;5003403;28;20685;-45
2023/11/15 07:31:52;;;;;;;11.80;4.10;;;;;;;7.54;79.84;99872.94;5004878;28;20068;-50
2023/11/15 07:34:22;;;;;;;7.80;3.25;;;;;;;7.45;80.73;99889.19;5004340;28;20050;-52
2023/11/15 07:36:50;;;;;;;6.28;3.22;;;;;;;7.53;80.70;99884.94;5004659;28;20057;-50
2023/11/15 07:39:18;;;;;;;7.10;2.58;;;;;;;7.56;80.16;99884.09;5005400;28;20049;-52
2023/11/15 07:41:46;;;;;;;7.47;2.83;;;;;;;7.59;80.65;99894.44;5022341;28;20041;-44
2023/11/15 07:44:15;;;;;;;12.48;4.88;;;;;;;7.61;80.56;99903.06;5013308;28;20046;-49
2023/11/15 07:46:46;;;;;;;7.22;2.50;;;;;;;7.59;80.20;99897.88;5014354;28;20046;-46
2023/11/15 07:49:18;;;;;;;5.90;1.70;;;;;;;7.62;80.74;99911.63;5018300;28;20095;-46
2023/11/15 07:51:45;;;;;;;8.23;2.92;;;;;;;7.65;80.69;99917.69;5016984;28;20046;-43
2023/11/15 07:54:13;;;;;;;4.85;1.10;;;;;;;7.73;80.43;99917.72;5007845;28;20053;-46
2023/11/15 07:56:41;;;;;;;8.80;1.73;;;;;;;7.78;79.53;99928.97;5003039;28;20096;-47
2023/11/15 07:59:08;;;;;;;8.63;1.83;;;;;;;7.87;79.25;99930.72;5009756;28;20056;-50
2023/11/15 08:01:37;;;;;;;2.53;0.95;;;;;;;7.95;79.41;99934.22;5014069;28;20042;-47
2023/11/15 08:04:06;;;;;;;2.20;0.77;;;;;;;8.02;79.68;99931.66;5001974;28;20073;-46
2023/11/15 08:06:36;;;;;;;6.80;1.08;;;;;;;8.07;79.30;99930.00;5011531;28;20139;-47
2023/11/15 08:09:05;;;;;;;7.38;0.90;;;;;;;8.13;78.51;99930.00;5010517;28;20058;-44
2023/11/15 08:11:35;;;;;;;5.47;2.50;;;;;;;8.19;78.99;99924.88;5026430;28;20454;-46
2023/11/15 08:14:06;;;;;;;6.35;1.33;;;;;;;8.26;78.77;99924.91;5012249;28;20466;-48
2023/11/15 08:16:33;;;;;;;5.13;1.25;;;;;;;8.33;79.16;99926.66;5002533;28;20104;-42
2023/11/15 08:19:01;;;;;;;5.13;1.67;;;;;;;8.41;78.73;99934.44;5008884;28;20594;-45
2023/11/15 08:21:29;;;;;;;4.40;1.45;;;;;;;8.56;78.77;99934.53;5006442;28;20054;-45
2023/11/15 08:23:56;;;;;;;10.93;1.58;;;;;;;8.72;78.69;99932.84;5009635;28;20764;-48
2023/11/15 08:26:22;;;;;;;8.07;1.50;;;;;;;9.01;78.45;99936.38;5012007;28;20061;-46
2023/11/15 08:28:49;;;;;;;6.40;0.85;;;;;;;9.19;77.78;99934.69;5009674;28;20050;-51
2023/11/15 08:31:16;;;;;;;4.13;1.15;;;;;;;9.27;76.99;99938.16;5008565;28;20049;-45
2023/11/15 08:33:44;;;;;;;6.60;1.85;;;;;;;9.41;77.29;99940.72;5011076;28;20060;-47
2023/11/15 08:36:12;;;;;;;5.30;2.08;;;;;;;9.59;76.50;99954.53;5011269;28;20077;-44
2023/11/15 08:38:39;;;;;;;9.98;0.90;;;;;;;9.67;76.54;99963.16;5004729;28;20097;-44
2023/11/15 08:41:06;;;;;;;7.65;1.10;;;;;;;9.76;76.35;99957.97;5010611;28;20487;-43
2023/11/15 08:43:33;;;;;;;3.75;1.13;;;;;;;9.90;76.52;99962.28;5012127;28;20049;-47
2023/11/15 08:46:03;;;;;;;;;;;;;;;9.98;75.39;99970.88;5004644;28;20057;-46
2023/11/15 08:48:33;;;;;;;5.90;0.70;;;;;;;10.50;75.45;99971.63;5007289;28;19928;-46
2023/11/15 08:51:02;;;;;;;5.28;1.08;;;;;;;10.89;74.11;99966.28;5005995;28;20052;-46
2023/11/15 08:53:29;;;;;;;3.22;0.95;;;;;;;11.25;73.90;99968.63;5010638;28;20069;-43
2023/11/15 08:55:56;;;;;;;4.40;1.17;;;;;;;11.56;74.42;99964.97;5017230;28;20085;-45
2023/11/15 08:58:31;;;;;;;5.57;2.03;;;;;;;11.93;74.06;99962.03;5010712;28;20715;-47
2023/11/15 09:01:01;;;;;;;5.95;2.13;;;;;;;12.55;73.15;99959.69;5010504;28;20085;-45
2023/11/15 09:03:28;;;;;;;22.05;6.97;;;;;;;13.21;71.09;99951.88;5008850;28;20083;-48
2023/11/15 09:05:56;;;;;;;8.70;2.45;;;;;;;13.74;70.12;99951.03;5018329;28;20077;-46
2023/11/15 09:08:22;;;;;;;13.93;3.45;;;;;;;14.20;69.87;99958.88;5011445;28;20281;-45
2023/11/15 09:10:52;;;;;;;10.55;3.88;;;;;;;14.77;68.84;99962.13;5015943;28;20045;-50
2023/11/15 09:13:19;;;;;;;11.48;2.50;;;;;;;15.43;68.08;99969.31;5009029;28;20049;-53
2023/11/15 09:15:47;;;;;;;8.32;2.80;;;;;;;16.01;67.51;99970.53;5014306;28;20042;-51
2023/11/15 09:18:14;;;;;;;11.00;2.42;;;;;;;16.51;65.58;99979.63;5010350;28;20053;-45
2023/11/15 09:20:41;;;;;;;10.30;4.18;;;;;;;16.93;64.69;99979.25;5009144;28;20465;-52
2023/11/15 09:23:08;;;;;;;9.25;3.45;;;;;;;17.28;63.55;99986.09;5008105;28;20415;-45
2023/11/15 09:25:49;;;;;;;11.70;3.88;;;;;;;17.63;62.63;99988.47;5010280;28;20050;-54
2023/11/15 09:28:19;;;;;;;7.15;2.67;;;;;;;18.03;61.88;99979.25;5009583;28;20495;-45
2023/11/15 09:30:45;;;;;;;8.02;2.58;;;;;;;18.47;61.62;99988.22;5014572;28;20041;-48
2023/11/15 09:33:16;;;;;;;9.68;2.85;;;;;;;18.82;60.03;99982.59;5024829;28;20050;-46
2023/11/15 09:35:44;;;;;;;8.85;2.83;;;;;;;18.97;58.73;99987.25;5014027;28;20060;-42
2023/11/15 09:38:23;;;;;;;11.55;3.60;;;;;;;19.24;56.99;99994.97;5002612;28;20058;-43
2023/11/15 09:40:50;;;;;;;8.20;2.63;;;;;;;19.36;57.29;99990.16;5007168;28;20081;-50
2023/11/15 09:43:19;;;;;;;7.60;2.47;;;;;;;19.64;56.82;99991.63;5005533;28;20585;-41
2023/11/15 09:45:48;;;;;;;9.13;2.30;;;;;;;19.88;56.42;99984.50;5008062;28;20085;-47
2023/11/15 09:48:15;;;;;;;6.68;1.83;;;;;;;20.04;55.34;99984.69;5006210;28;20545;-48
2023/11/15 09:50:48;;;;;;;6.45;2.20;;;;;;;20.11;53.68;99987.06;5001655;28;20074;-45
2023/11/15 09:53:19;;;;;;;7.47;2.90;;;;;;;20.20;53.84;99977.94;5006601;28;20120;-40
2023/11/15 09:55:47;;;;;;;7.82;3.42;;;;;;;20.23;53.78;99983.91;5007343;28;20054;-46
2023/11/15 09:58:14;;;;;;;9.07;3.25;;;;;;;20.25;52.52;99974.19;5005749;28;20049;-44
2023/11/15 10:00:41;;;;;;;6.80;2.35;;;;;;;20.22;52.23;99971.69;5004369;28;20077;-43
2023/11/15 10:03:08;;;;;;;3.85;1.23;;;;;;;20.23;50.92;99978.63;5003094;28;20053;-45
2023/11/15 10:05:35;;;;;;;7.30;2.72;;;;;;;20.32;51.39;99971.25;5023804;28;20050;-47
2023/11/15 10:10:44;;;;;;;5.20;3.20;;;;;;;19.97;49.26;99980.63;5024210;27;20399;-48
2023/11/15 10:15:47;;;;;;;5.88;1.70;;;;;;;19.96;48.71;99973.63;5049750;27;20410;-42
2023/11/15 10:18:28;;;;;;;5.25;0.90;;;;;;;19.78;49.34;99973.53;5019939;28;20069;-45
2023/11/15 10:21:11;;;;;;;5.47;1.83;;;;;;;19.45;47.82;99971.38;5026365;28;20049;-50
2023/11/15 10:23:38;;;;;;;7.32;1.40;;;;;;;18.82;48.45;99961.59;5047106;28;20058;-47
2023/11/15 10:26:09;;;;;;;3.67;1.58;;;;;;;18.28;50.43;99964.44;5025987;28;20052;-45
2023/11/15 10:28:39;;;;;;;10.23;3.75;;;;;;;17.68;50.86;99971.72;5022021;28;20438;-50
2023/11/15 10:31:14;;;;;;;9.00;1.73;;;;;;;17.18;51.68;99968.06;5019409;28;20060;-49
2023/11/15 10:33:45;;;;;;;4.22;1.80;;;;;;;16.67;51.95;99977.41;5017509;28;20054;-50
2023/11/15 10:36:14;;;;;;;4.95;1.55;;;;;;;16.25;53.49;99983.84;5043466;28;20057;-50
2023/11/15 10:38:44;;;;;;;4.35;1.05;;;;;;;15.84;54.01;99990.06;5016262;28;20183;-47
2023/11/15 10:41:16;;;;;;;6.93;1.88;;;;;;;15.57;54.73;99989.84;5048455;28;20049;-48
2023/11/15 10:43:49;;;;;;;8.20;1.73;;;;;;;15.25;54.13;99986.28;5014255;28;20057;-46
2023/11/15 10:46:17;;;;;;;5.95;2.00;;;;;;;14.99;55.20;99985.97;5045095;28;20056;-50
2023/11/15 10:48:45;;;;;;;4.90;1.15;;;;;;;14.76;55.74;99983.84;5015017;28;20050;-52
2023/11/15 10:51:20;;;;;;;2.80;0.68;;;;;;;14.55;56.01;99983.38;5016863;28;20077;-45
2023/11/15 10:53:47;;;;;;;5.32;1.63;;;;;;;14.25;55.80;99972.66;5045851;28;20054;-43
2023/11/15 10:56:16;;;;;;;6.00;1.75;;;;;;;14.12;56.64;99985.94;5016589;28;20046;-48
2023/11/15 10:58:47;;;;;;;5.10;1.33;;;;;;;13.91;56.98;99983.72;5014870;28;20050;-54
2023/11/15 11:01:16;;;;;;;6.35;1.00;;;;;;;13.69;57.18;99979.75;5015046;28;20092;-50
2023/11/15 11:03:47;;;;;;;6.47;1.88;;;;;;;13.70;58.00;99985.81;5013534;28;20050;-48
2023/11/15 11:09:09;;;;;;;4.15;0.70;;;;;;;13.62;59.01;99993.75;5062644;27;20402;-52
2023/11/15 11:11:45;;;;;;;5.65;1.40;;;;;;;13.56;58.85;99983.44;5020132;28;20487;-43
2023/11/15 11:14:25;;;;;;;6.10;2.05;;;;;;;13.43;58.98;99998.34;5019180;28;20064;-52
2023/11/15 11:16:54;;;;;;;8.45;1.75;;;;;;;13.37;59.16;100000.16;5021478;28;20462;-47
2023/11/15 11:19:22;;;;;;;2.33;1.10;;;;;;;13.29;59.31;100012.44;5020828;28;20049;-45
2023/11/15 11:22:08;;;;;;;4.32;0.98;;;;;;;13.26;59.53;100020.25;5019872;28;20117;-46
2023/11/15 11:32:28;;;;;;;2.95;0.63;;;;;;;13.04;59.11;100028.34;5022268;28;20409;-50
2023/11/15 11:40:16;;;;;;;6.22;1.00;;;;;;;12.79;59.95;100038.19;5060095;27;20381;-50
2023/11/15 11:42:44;;;;;;;7.75;1.55;;;;;;;12.69;60.12;100034.84;5033828;28;20048;-48
2023/11/15 11:45:12;;;;;;;4.85;0.88;;;;;;;12.68;60.26;100040.94;5015267;28;20128;-43
2023/11/15 11:47:46;;;;;;;4.47;1.40;;;;;;;12.71;59.95;100036.56;5019492;28;20053;-51
2023/11/15 11:50:17;;;;;;;7.05;1.63;;;;;;;12.80;60.25;100030.38;5019298;28;20048;-47
2023/11/15 11:52:44;;;;;;;2.92;1.05;;;;;;;12.84;60.02;100036.44;5018672;28;20046;-49
2023/11/15 11:55:12;;;;;;;6.13;0.60;;;;;;;12.88;60.28;100032.03;5027553;28;20041;-42
2023/11/15 11:57:39;;;;;;;4.10;0.73;;;;;;;12.93;60.30;100043.22;5037888;28;20049;-49
2023/11/15 12:00:11;;;;;;;3.25;0.63;;;;;;;12.83;59.93;100050.28;5041087;28;20053;-48
2023/11/15 12:02:45;;;;;;;2.72;1.08;;;;;;;12.60;59.00;100043.63;5020651;28;20060;-46
2023/11/15 12:05:13;;;;;;;4.70;0.80;;;;;;;12.65;60.13;100047.03;5048092;28;20056;-48